createdAt,value
2023-01-18T00:00:10.570Z,92020.94
2023-01-18T00:01:08.968Z,92021.56
2023-01-18T00:02:05.706Z,92039.06
2023-01-18T00:03:02.429Z,92031.53
2023-01-18T00:03:59.004Z,92011.78
2023-01-18T00:04:55.595Z,92017.91
2023-01-18T00:05:54.665Z,92020.31
2023-01-18T00:06:51.304Z,92019.53
2023-01-18T00:07:48.034Z,92014.59
2023-01-18T00:08:44.634Z,92053.84
2023-01-18T00:09:41.235Z,92024.94
2023-01-18T00:10:38.159Z,91997.59
2023-01-18T00:11:34.740Z,92022.06
2023-01-18T00:12:33.717Z,92025.50
2023-01-18T00:13:30.315Z,91993.53
2023-01-18T00:14:26.904Z,92029.69
2023-01-18T00:15:23.548Z,91983.63
2023-01-18T00:16:21.914Z,92015.16
2023-01-18T00:17:18.569Z,92043.78
2023-01-18T00:18:15.176Z,92039.25
2023-01-18T00:19:14.115Z,92028.19
2023-01-18T00:20:11.672Z,92050.97
2023-01-18T00:21:10.200Z,92032.59
2023-01-18T00:22:06.850Z,92019.72
2023-01-18T00:23:03.610Z,92032.13
2023-01-18T00:24:00.267Z,92044.84
2023-01-18T00:24:56.916Z,92044.56
2023-01-18T00:25:53.650Z,92036.00
2023-01-18T00:26:50.433Z,92047.06
2023-01-18T00:27:50.059Z,92031.16
2023-01-18T00:28:46.776Z,92041.41
2023-01-18T00:29:43.403Z,92046.91
2023-01-18T00:30:40.048Z,91957.94
2023-01-18T00:31:37.688Z,92036.56
2023-01-18T00:32:34.892Z,92036.28
2023-01-18T00:33:31.497Z,92058.38
2023-01-18T00:34:28.144Z,92046.53
2023-01-18T00:35:25.580Z,92011.22
2023-01-18T00:36:22.185Z,92034.31
2023-01-18T00:37:18.821Z,92054.44
2023-01-18T00:38:15.406Z,92064.03
2023-01-18T00:39:13.039Z,92052.66
2023-01-18T00:40:10.571Z,92060.72
2023-01-18T00:41:07.251Z,92035.56
2023-01-18T00:42:22.170Z,92067.53
2023-01-18T00:43:37.658Z,92065.94
2023-01-18T00:44:34.358Z,92065.22
2023-01-18T00:45:31.068Z,92062.63
2023-01-18T00:46:27.826Z,92075.94
2023-01-18T00:47:24.964Z,92060.69
2023-01-18T00:48:21.666Z,92054.59
2023-01-18T00:49:18.389Z,92077.09
2023-01-18T00:50:15.183Z,92064.94
2023-01-18T00:51:14.793Z,92069.16
2023-01-18T00:52:11.383Z,92073.69
2023-01-18T00:53:07.982Z,92079.78
2023-01-18T00:54:04.626Z,92080.91
2023-01-18T00:55:03.943Z,92088.94
2023-01-18T00:56:00.545Z,92079.44
2023-01-18T00:56:57.184Z,92076.41
2023-01-18T00:57:53.917Z,92081.34
2023-01-18T00:58:50.815Z,92085.53
2023-01-18T00:59:47.464Z,92092.41
2023-01-18T01:00:44.160Z,92073.78
2023-01-18T01:01:41.028Z,92098.13
2023-01-18T01:02:41.746Z,92105.38
2023-01-18T01:03:57.469Z,92077.16
2023-01-18T01:05:29.270Z,92068.34
2023-01-18T01:06:44.432Z,92096.47
2023-01-18T01:07:41.316Z,92082.81
2023-01-18T01:08:37.984Z,92096.09
2023-01-18T01:09:34.581Z,92082.00
2023-01-18T01:10:31.318Z,92082.38
2023-01-18T01:11:27.993Z,92083.53
2023-01-18T01:12:43.514Z,92093.91
2023-01-18T01:13:58.468Z,92081.31
2023-01-18T01:15:14.043Z,92073.28
2023-01-18T01:16:30.615Z,92061.94
2023-01-18T01:17:50.905Z,92086.31
2023-01-18T01:19:06.282Z,92088.59
2023-01-18T01:20:22.190Z,92060.78
2023-01-18T01:21:37.090Z,92095.41
2023-01-18T01:22:52.104Z,92093.16
2023-01-18T01:24:07.318Z,92101.50
2023-01-18T01:25:22.964Z,92091.97
2023-01-18T01:26:19.574Z,92103.44
2023-01-18T01:27:17.530Z,92083.66
2023-01-18T01:28:14.360Z,92116.03
2023-01-18T01:29:11.079Z,92113.38
2023-01-18T01:30:08.358Z,92096.25
2023-01-18T01:31:07.538Z,92119.09
2023-01-18T01:32:05.189Z,92097.41
2023-01-18T01:33:01.747Z,92132.41
2023-01-18T01:33:58.354Z,92117.19
2023-01-18T01:34:55.506Z,92130.09
2023-01-18T01:35:57.479Z,92123.25
2023-01-18T01:36:54.029Z,92132.41
2023-01-18T01:37:50.709Z,92132.78
2023-01-18T01:38:47.483Z,92092.84
2023-01-18T01:39:44.130Z,92137.78
2023-01-18T01:40:40.719Z,92136.59
2023-01-18T01:41:38.096Z,92136.22
2023-01-18T01:42:34.735Z,92125.56
2023-01-18T01:43:50.715Z,92149.19
2023-01-18T01:44:52.083Z,92141.53
2023-01-18T01:45:49.698Z,92155.25
2023-01-18T01:46:59.002Z,92109.22
2023-01-18T01:47:57.388Z,92108.06
2023-01-18T01:49:01.843Z,92117.19
2023-01-18T01:50:03.184Z,92122.50
2023-01-18T01:50:59.832Z,92116.41
2023-01-18T01:52:08.571Z,92114.13
2023-01-18T01:53:06.445Z,92125.19
2023-01-18T01:54:07.067Z,92120.22
2023-01-18T01:55:07.034Z,92120.22
2023-01-18T01:56:05.104Z,92110.31
2023-01-18T01:57:08.009Z,92138.50
2023-01-18T01:58:13.856Z,92138.09
2023-01-18T01:59:11.355Z,92142.69
2023-01-18T02:00:11.305Z,92143.06
2023-01-18T02:01:09.209Z,92135.06
2023-01-18T02:02:07.096Z,92145.75
2023-01-18T02:03:09.708Z,92141.53
2023-01-18T02:04:06.221Z,92141.56
2023-01-18T02:05:06.638Z,92113.38
2023-01-18T02:06:16.486Z,92127.44
2023-01-18T02:07:14.070Z,92118.34
2023-01-18T02:08:14.071Z,92132.41
2023-01-18T02:09:15.684Z,92123.28
2023-01-18T02:10:12.460Z,92114.91
2023-01-18T02:11:09.140Z,92147.28
2023-01-18T02:12:06.136Z,92126.31
2023-01-18T02:13:02.851Z,92129.34
2023-01-18T02:14:03.915Z,92137.72
2023-01-18T02:15:00.991Z,92138.09
2023-01-18T02:16:10.510Z,92139.25
2023-01-18T02:17:34.354Z,92101.19
2023-01-18T02:18:55.990Z,92136.22
2023-01-18T02:20:11.310Z,92136.97
2023-01-18T02:21:20.188Z,92130.09
2023-01-18T02:22:47.234Z,92148.00
2023-01-18T02:24:28.635Z,92150.69
2023-01-18T02:25:40.398Z,92133.88
2023-01-18T02:27:03.630Z,92127.44
2023-01-18T02:28:10.251Z,92119.81
2023-01-18T02:29:12.327Z,92149.91
2023-01-18T02:30:25.135Z,92151.34
2023-01-18T02:31:27.871Z,92108.75
2023-01-18T02:32:36.877Z,92136.50
2023-01-18T02:33:46.847Z,92140.31
2023-01-18T02:34:55.398Z,92133.03
2023-01-18T02:35:56.669Z,92121.94
2023-01-18T02:37:17.311Z,92147.50
2023-01-18T02:38:21.076Z,92163.19
2023-01-18T02:39:31.860Z,92169.63
2023-01-18T02:40:34.329Z,92111.41
2023-01-18T02:41:59.570Z,92136.09
2023-01-18T02:43:19.852Z,92166.97
2023-01-18T02:44:42.447Z,92152.41
2023-01-18T02:46:02.055Z,92152.09
2023-01-18T02:46:58.819Z,92153.22
2023-01-18T02:47:55.696Z,92154.00
2023-01-18T02:48:52.771Z,92165.44
2023-01-18T02:49:49.389Z,92173.78
2023-01-18T02:50:46.020Z,92178.75
2023-01-18T02:51:43.274Z,92156.63
2023-01-18T02:52:42.951Z,92137.53
2023-01-18T02:53:44.895Z,92146.69
2023-01-18T02:54:41.573Z,92161.56
2023-01-18T02:55:44.445Z,92165.78
2023-01-18T02:56:52.456Z,92168.44
2023-01-18T02:57:49.072Z,92161.97
2023-01-18T02:58:48.975Z,92158.16
2023-01-18T02:59:53.211Z,92158.16
2023-01-18T03:00:56.596Z,92147.47
2023-01-18T03:02:01.251Z,92135.66
2023-01-18T03:02:59.563Z,92133.78
2023-01-18T03:04:06.439Z,92144.84
2023-01-18T03:05:03.865Z,92153.22
2023-01-18T03:06:03.618Z,92140.28
2023-01-18T03:07:07.786Z,92147.88
2023-01-18T03:08:28.880Z,92152.81
2023-01-18T03:09:27.582Z,92164.66
2023-01-18T03:10:28.524Z,92165.06
2023-01-18T03:11:30.601Z,92148.66
2023-01-18T03:12:50.272Z,92141.41
2023-01-18T03:13:49.785Z,92145.94
2023-01-18T03:14:49.196Z,92149.41
2023-01-18T03:15:52.488Z,92159.31
2023-01-18T03:17:23.660Z,92156.63
2023-01-18T03:18:29.633Z,92155.88
2023-01-18T03:20:09.490Z,92157.41
2023-01-18T03:21:08.464Z,92130.03
2023-01-18T03:22:06.471Z,92156.69
2023-01-18T03:23:37.101Z,92157.44
2023-01-18T03:24:41.201Z,92147.13
2023-01-18T03:25:43.776Z,92097.25
2023-01-18T03:26:47.088Z,92117.38
2023-01-18T03:28:06.128Z,92133.81
2023-01-18T03:29:23.136Z,92131.16
2023-01-18T03:30:38.283Z,92113.56
2023-01-18T03:32:03.984Z,92124.59
2023-01-18T03:33:19.468Z,92140.66
2023-01-18T03:34:26.011Z,92125.47
2023-01-18T03:35:27.457Z,92132.34
2023-01-18T03:36:28.644Z,92133.84
2023-01-18T03:37:33.684Z,92118.63
2023-01-18T03:38:32.438Z,92149.53
2023-01-18T03:39:31.363Z,92138.44
2023-01-18T03:40:30.307Z,92106.00
2023-01-18T03:41:30.582Z,92104.41
2023-01-18T03:42:39.888Z,92086.63
2023-01-18T03:43:37.931Z,92137.28
2023-01-18T03:44:42.376Z,92060.03
2023-01-18T03:45:47.431Z,92114.81
2023-01-18T03:46:44.279Z,92131.88
2023-01-18T03:47:41.227Z,92130.78
2023-01-18T03:48:37.972Z,92140.72
2023-01-18T03:49:35.491Z,92138.41
2023-01-18T03:50:50.049Z,92131.50
2023-01-18T03:52:05.155Z,92134.56
2023-01-18T03:53:08.495Z,92137.97
2023-01-18T03:54:19.553Z,92109.78
2023-01-18T03:55:24.311Z,92108.22
2023-01-18T03:56:28.305Z,92120.78
2023-01-18T03:57:27.781Z,92133.38
2023-01-18T03:58:30.876Z,92131.03
2023-01-18T03:59:33.200Z,92118.84
2023-01-18T04:00:31.596Z,92116.94
2023-01-18T04:01:28.819Z,92128.78
2023-01-18T04:02:26.951Z,92104.78
2023-01-18T04:03:23.713Z,92130.25
2023-01-18T04:04:20.321Z,92121.06
2023-01-18T04:05:18.055Z,92131.69
2023-01-18T04:06:14.917Z,92133.22
2023-01-18T04:07:11.616Z,92123.66
2023-01-18T04:08:08.244Z,92118.31
2023-01-18T04:09:04.836Z,92130.94
2023-01-18T04:10:02.034Z,92130.63
2023-01-18T04:10:58.710Z,92126.84
2023-01-18T04:11:55.436Z,92128.72
2023-01-18T04:12:52.340Z,92122.59
2023-01-18T04:13:48.979Z,92123.19
2023-01-18T04:14:45.602Z,92130.75
2023-01-18T04:15:42.239Z,92154.88
2023-01-18T04:16:38.860Z,92137.47
2023-01-18T04:17:35.515Z,92111.63
2023-01-18T04:18:32.155Z,92140.50
2023-01-18T04:19:28.718Z,92143.19
2023-01-18T04:20:25.394Z,92135.97
2023-01-18T04:21:22.190Z,92113.94
2023-01-18T04:22:19.402Z,92149.66
2023-01-18T04:23:15.982Z,92150.44
2023-01-18T04:24:12.696Z,92150.09
2023-01-18T04:25:09.565Z,92148.19
2023-01-18T04:26:06.137Z,92147.38
2023-01-18T04:27:03.120Z,92151.56
2023-01-18T04:27:59.784Z,92152.34
2023-01-18T04:28:56.595Z,92166.47
2023-01-18T04:29:53.293Z,92165.28
2023-01-18T04:30:50.200Z,92161.78
2023-01-18T04:31:47.251Z,92144.34
2023-01-18T04:32:46.219Z,92142.81
2023-01-18T04:33:42.980Z,92140.97
2023-01-18T04:34:39.599Z,92124.63
2023-01-18T04:35:36.362Z,92152.03
2023-01-18T04:36:33.085Z,92145.91
2023-01-18T04:37:34.055Z,92159.53
2023-01-18T04:38:30.709Z,92151.53
2023-01-18T04:39:27.456Z,92142.66
2023-01-18T04:40:24.106Z,92148.78
2023-01-18T04:41:21.416Z,92153.38
2023-01-18T04:42:18.003Z,92149.97
2023-01-18T04:43:14.627Z,92143.09
2023-01-18T04:44:11.415Z,92112.00
2023-01-18T04:45:08.985Z,92157.28
2023-01-18T04:46:05.579Z,92156.50
2023-01-18T04:47:02.201Z,92140.84
2023-01-18T04:47:58.806Z,92159.09
2023-01-18T04:48:55.663Z,92134.00
2023-01-18T04:49:52.311Z,92147.25
2023-01-18T04:50:49.117Z,92148.78
2023-01-18T04:51:46.849Z,92164.78
2023-01-18T04:52:43.425Z,92145.84
2023-01-18T04:53:42.024Z,92167.91
2023-01-18T04:54:38.607Z,92165.97
2023-01-18T04:55:35.239Z,92160.22
2023-01-18T04:56:31.871Z,92151.03
2023-01-18T04:57:28.599Z,92152.19
2023-01-18T04:58:25.223Z,92158.72
2023-01-18T04:59:21.789Z,92163.25
2023-01-18T05:00:18.621Z,92178.00
2023-01-18T05:01:17.153Z,92181.09
2023-01-18T05:02:15.299Z,92127.53
2023-01-18T05:03:12.620Z,92171.56
2023-01-18T05:04:09.421Z,92179.63
2023-01-18T05:05:06.548Z,92170.84
2023-01-18T05:06:03.362Z,92168.59
2023-01-18T05:07:02.294Z,92169.31
2023-01-18T05:07:59.009Z,92168.53
2023-01-18T05:08:55.618Z,92172.22
2023-01-18T05:09:52.347Z,92169.13
2023-01-18T05:10:49.241Z,92166.13
2023-01-18T05:11:45.850Z,92167.69
2023-01-18T05:12:42.962Z,92176.09
2023-01-18T05:13:40.487Z,92170.31
2023-01-18T05:14:37.081Z,92163.78
2023-01-18T05:15:34.908Z,92165.44
2023-01-18T05:16:31.601Z,92189.06
2023-01-18T05:17:30.534Z,92180.59
2023-01-18T05:18:27.601Z,92134.25
2023-01-18T05:19:24.317Z,92174.91
2023-01-18T05:20:20.977Z,92164.91
2023-01-18T05:21:17.588Z,92169.06
2023-01-18T05:22:14.587Z,92163.59
2023-01-18T05:23:11.221Z,92155.91
2023-01-18T05:24:07.840Z,92176.59
2023-01-18T05:25:06.218Z,92190.44
2023-01-18T05:26:04.789Z,92156.53
2023-01-18T05:27:01.423Z,92167.50
2023-01-18T05:27:58.045Z,92193.47
2023-01-18T05:28:58.543Z,92165.81
2023-01-18T05:29:55.248Z,92194.38
2023-01-18T05:30:52.760Z,92185.22
2023-01-18T05:31:49.366Z,92163.16
2023-01-18T05:32:46.043Z,92176.84
2023-01-18T05:33:42.749Z,92179.53
2023-01-18T05:34:39.630Z,92182.09
2023-01-18T05:35:36.855Z,92196.47
2023-01-18T05:36:33.423Z,92191.94
2023-01-18T05:37:29.970Z,92183.59
2023-01-18T05:38:26.557Z,92194.38
2023-01-18T05:39:23.696Z,92172.34
2023-01-18T05:40:20.759Z,92190.13
2023-01-18T05:41:17.476Z,92181.78
2023-01-18T05:42:14.179Z,92180.66
2023-01-18T05:43:11.483Z,92196.81
2023-01-18T05:44:09.399Z,92199.09
2023-01-18T05:45:07.247Z,92177.06
2023-01-18T05:46:05.446Z,92177.50
2023-01-18T05:47:02.150Z,92183.25
2023-01-18T05:47:59.816Z,92187.84
2023-01-18T05:48:59.400Z,92184.66
2023-01-18T05:49:57.940Z,92201.00
2023-01-18T05:50:54.635Z,92199.44
2023-01-18T05:51:51.733Z,92191.06
2023-01-18T05:52:48.333Z,92156.53
2023-01-18T05:53:44.929Z,92187.44
2023-01-18T05:54:41.979Z,92183.28
2023-01-18T05:55:38.632Z,92209.00
2023-01-18T05:56:35.503Z,92212.34
2023-01-18T05:57:32.108Z,92183.44
2023-01-18T05:58:28.885Z,92211.66
2023-01-18T05:59:25.604Z,92217.44
2023-01-18T06:00:22.704Z,92211.56
2023-01-18T06:01:19.584Z,92205.72
2023-01-18T06:02:16.623Z,92214.13
2023-01-18T06:03:13.470Z,92190.53
2023-01-18T06:04:10.268Z,92212.63
2023-01-18T06:05:07.173Z,92212.97
2023-01-18T06:06:03.863Z,92222.16
2023-01-18T06:07:00.522Z,92217.53
2023-01-18T06:07:57.132Z,92198.94
2023-01-18T06:08:53.691Z,92221.34
2023-01-18T06:09:50.420Z,92218.72
2023-01-18T06:10:58.081Z,92227.13
2023-01-18T06:11:54.610Z,92192.78
2023-01-18T06:12:51.417Z,92213.59
2023-01-18T06:13:48.153Z,92231.88
2023-01-18T06:14:44.768Z,92232.00
2023-01-18T06:15:41.354Z,92234.00
2023-01-18T06:16:37.954Z,92204.72
2023-01-18T06:17:35.270Z,92240.06
2023-01-18T06:18:33.463Z,92240.88
2023-01-18T06:19:30.061Z,92214.63
2023-01-18T06:20:30.505Z,92227.91
2023-01-18T06:21:27.150Z,92228.72
2023-01-18T06:22:24.940Z,92235.94
2023-01-18T06:23:21.873Z,92234.03
2023-01-18T06:24:18.506Z,92241.66
2023-01-18T06:25:15.131Z,92256.22
2023-01-18T06:26:11.805Z,92236.81
2023-01-18T06:27:08.428Z,92256.22
2023-01-18T06:28:05.463Z,92230.72
2023-01-18T06:29:03.341Z,92255.41
2023-01-18T06:30:00.019Z,92253.13
2023-01-18T06:30:57.197Z,92251.63
2023-01-18T06:31:55.038Z,92253.13
2023-01-18T06:32:51.863Z,92244.03
2023-01-18T06:33:48.723Z,92254.25
2023-01-18T06:34:45.295Z,92257.72
2023-01-18T06:35:43.235Z,92271.44
2023-01-18T06:36:39.826Z,92242.81
2023-01-18T06:37:36.388Z,92257.72
2023-01-18T06:38:33.031Z,92255.44
2023-01-18T06:39:29.787Z,92262.72
2023-01-18T06:40:26.697Z,92265.38
2023-01-18T06:41:23.440Z,92266.13
2023-01-18T06:42:20.096Z,92264.19
2023-01-18T06:43:16.887Z,92259.25
2023-01-18T06:44:13.555Z,92259.19
2023-01-18T06:45:10.551Z,92262.22
2023-01-18T06:46:09.673Z,92247.78
2023-01-18T06:47:09.498Z,92242.50
2023-01-18T06:48:06.379Z,92228.84
2023-01-18T06:49:03.034Z,92225.72
2023-01-18T06:49:59.576Z,92227.25
2023-01-18T06:50:57.132Z,92246.31
2023-01-18T06:51:53.759Z,92242.13
2023-01-18T06:52:51.453Z,92226.97
2023-01-18T06:53:48.906Z,92240.25
2023-01-18T06:54:45.458Z,92253.59
2023-01-18T06:55:42.115Z,92246.06
2023-01-18T06:56:40.020Z,92274.22
2023-01-18T06:57:36.630Z,92254.75
2023-01-18T06:58:33.589Z,92253.63
2023-01-18T06:59:33.213Z,92256.66
2023-01-18T07:00:30.095Z,92256.66
2023-01-18T07:01:28.020Z,92263.50
2023-01-18T07:02:24.623Z,92283.34
2023-01-18T07:03:21.456Z,92258.97
2023-01-18T07:04:18.134Z,92259.78
2023-01-18T07:05:14.753Z,92260.44
2023-01-18T07:06:11.420Z,92236.53
2023-01-18T07:07:08.045Z,92270.03
2023-01-18T07:08:04.817Z,92278.44
2023-01-18T07:09:01.433Z,92270.38
2023-01-18T07:09:57.969Z,92261.22
2023-01-18T07:10:54.955Z,92262.31
2023-01-18T07:11:51.848Z,92265.44
2023-01-18T07:12:48.970Z,92263.97
2023-01-18T07:13:46.274Z,92261.66
2023-01-18T07:14:42.850Z,92265.84
2023-01-18T07:15:39.557Z,92266.16
2023-01-18T07:16:36.284Z,92275.38
2023-01-18T07:17:33.139Z,92245.72
2023-01-18T07:18:30.555Z,92269.59
2023-01-18T07:19:28.557Z,92199.13
2023-01-18T07:20:25.207Z,92225.00
2023-01-18T07:21:29.382Z,92249.78
2023-01-18T07:22:25.889Z,92263.19
2023-01-18T07:23:22.479Z,92267.75
2023-01-18T07:24:19.426Z,92258.59
2023-01-18T07:25:18.820Z,92266.25
2023-01-18T07:26:17.159Z,92265.50
2023-01-18T07:27:13.734Z,92273.88
2023-01-18T07:28:10.318Z,92276.19
2023-01-18T07:29:06.934Z,92277.72
2023-01-18T07:30:04.348Z,92283.03
2023-01-18T07:31:01.483Z,92281.50
2023-01-18T07:31:58.605Z,92280.00
2023-01-18T07:32:55.261Z,92286.13
2023-01-18T07:33:52.398Z,92287.66
2023-01-18T07:34:49.036Z,92283.06
2023-01-18T07:35:45.663Z,92292.63
2023-01-18T07:36:42.321Z,92309.38
2023-01-18T07:37:38.883Z,92304.44
2023-01-18T07:38:35.963Z,92296.84
2023-01-18T07:39:32.565Z,92284.59
2023-01-18T07:40:29.189Z,92291.47
2023-01-18T07:41:26.305Z,92302.59
2023-01-18T07:42:22.992Z,92305.28
2023-01-18T07:43:19.574Z,92315.94
2023-01-18T07:44:16.396Z,92320.50
2023-01-18T07:45:14.012Z,92325.88
2023-01-18T07:46:13.496Z,92306.78
2023-01-18T07:47:10.225Z,92279.38
2023-01-18T07:48:06.747Z,92296.16
2023-01-18T07:49:05.858Z,92345.34
2023-01-18T07:50:02.592Z,92346.88
2023-01-18T07:51:01.896Z,92322.84
2023-01-18T07:51:58.514Z,92326.66
2023-01-18T07:52:56.437Z,92324.75
2023-01-18T07:53:54.804Z,92325.88
2023-01-18T07:54:51.913Z,92321.31
2023-01-18T07:55:48.911Z,92332.78
2023-01-18T07:56:45.615Z,92349.94
2023-01-18T07:57:42.785Z,92340.75
2023-01-18T07:58:39.499Z,92341.53
2023-01-18T07:59:36.062Z,92332.75
2023-01-18T08:00:32.654Z,92362.84
2023-01-18T08:01:29.382Z,92369.75
2023-01-18T08:02:28.244Z,92363.63
2023-01-18T08:03:24.859Z,92351.78
2023-01-18T08:04:21.400Z,92341.09
2023-01-18T08:05:21.154Z,92326.94
2023-01-18T08:06:25.097Z,92335.72
2023-01-18T08:07:21.825Z,92351.00
2023-01-18T08:08:18.647Z,92349.84
2023-01-18T08:09:15.281Z,92335.72
2023-01-18T08:10:13.083Z,92350.97
2023-01-18T08:11:10.895Z,92353.25
2023-01-18T08:12:10.692Z,92353.59
2023-01-18T08:13:11.623Z,92347.09
2023-01-18T08:14:08.346Z,92316.66
2023-01-18T08:15:05.544Z,92317.03
2023-01-18T08:16:04.993Z,92348.25
2023-01-18T08:17:01.588Z,92365.81
2023-01-18T08:18:05.012Z,92313.63
2023-01-18T08:19:01.601Z,92361.59
2023-01-18T08:19:58.307Z,92352.81
2023-01-18T08:20:55.360Z,92345.59
2023-01-18T08:21:52.033Z,92340.59
2023-01-18T08:22:54.341Z,92333.72
2023-01-18T08:23:53.788Z,92358.94
2023-01-18T08:24:50.396Z,92356.66
2023-01-18T08:25:47.630Z,92361.59
2023-01-18T08:26:44.298Z,92368.50
2023-01-18T08:27:40.917Z,92369.63
2023-01-18T08:28:37.644Z,92379.53
2023-01-18T08:29:34.309Z,92372.22
2023-01-18T08:30:33.894Z,92368.75
2023-01-18T08:31:30.698Z,92363.72
2023-01-18T08:32:27.388Z,92368.69
2023-01-18T08:33:23.977Z,92339.44
2023-01-18T08:34:21.887Z,92388.63
2023-01-18T08:35:18.515Z,92383.25
2023-01-18T08:36:18.181Z,92385.16
2023-01-18T08:37:14.879Z,92394.28
2023-01-18T08:38:12.684Z,92383.63
2023-01-18T08:39:09.761Z,92337.84
2023-01-18T08:40:06.921Z,92372.06
2023-01-18T08:41:03.794Z,92388.06
2023-01-18T08:42:00.395Z,92377.44
2023-01-18T08:42:59.428Z,92373.28
2023-01-18T08:43:57.481Z,92375.59
2023-01-18T08:44:54.287Z,92383.28
2023-01-18T08:45:54.032Z,92366.22
2023-01-18T08:46:50.773Z,92400.50
2023-01-18T08:47:47.497Z,92391.69
2023-01-18T08:48:44.208Z,92393.97
2023-01-18T08:49:40.860Z,92390.19
2023-01-18T08:50:39.364Z,92383.75
2023-01-18T08:51:35.923Z,92388.66
2023-01-18T08:52:34.920Z,92392.47
2023-01-18T08:53:32.031Z,92391.34
2023-01-18T08:54:28.618Z,92389.81
2023-01-18T08:55:26.580Z,92400.44
2023-01-18T08:56:23.198Z,92402.00
2023-01-18T08:57:19.882Z,92407.41
2023-01-18T08:58:16.487Z,92405.91
2023-01-18T08:59:13.083Z,92406.31
2023-01-18T09:00:10.630Z,92403.97
2023-01-18T09:01:08.470Z,92387.56
2023-01-18T09:02:05.259Z,92407.34
2023-01-18T09:03:02.824Z,92413.81
2023-01-18T09:03:59.889Z,92415.72
2023-01-18T09:04:58.245Z,92420.34
2023-01-18T09:05:54.860Z,92428.41
2023-01-18T09:06:51.865Z,92424.94
2023-01-18T09:07:48.515Z,92423.78
2023-01-18T09:08:47.844Z,92423.00
2023-01-18T09:09:45.209Z,92438.66
2023-01-18T09:10:41.781Z,92447.47
2023-01-18T09:11:38.455Z,92431.44
2023-01-18T09:12:35.717Z,92435.97
2023-01-18T09:13:32.948Z,92429.88
2023-01-18T09:14:29.607Z,92442.09
2023-01-18T09:15:27.274Z,92446.22
2023-01-18T09:16:24.290Z,92450.44
2023-01-18T09:17:21.351Z,92456.97
2023-01-18T09:18:17.922Z,92451.28
2023-01-18T09:19:14.514Z,92437.16
2023-01-18T09:20:12.037Z,92368.13
2023-01-18T09:21:11.146Z,92378.44
2023-01-18T09:22:07.758Z,92440.56
2023-01-18T09:23:06.221Z,92438.97
2023-01-18T09:24:02.822Z,92438.59
2023-01-18T09:24:59.411Z,92448.16
2023-01-18T09:26:06.639Z,92449.72
2023-01-18T09:27:04.732Z,92459.28
2023-01-18T09:28:02.468Z,92456.94
2023-01-18T09:28:59.163Z,92458.47
2023-01-18T09:29:55.785Z,92468.09
2023-01-18T09:30:52.419Z,92468.09
2023-01-18T09:31:49.439Z,92467.34
2023-01-18T09:32:46.470Z,92454.69
2023-01-18T09:33:52.342Z,92460.00
2023-01-18T09:34:50.684Z,92474.56
2023-01-18T09:35:47.998Z,92460.66
2023-01-18T09:36:44.598Z,92471.44
2023-01-18T09:37:41.189Z,92458.84
2023-01-18T09:38:39.562Z,92452.75
2023-01-18T09:39:50.828Z,92464.13
2023-01-18T09:40:51.050Z,92463.78
2023-01-18T09:42:01.231Z,92448.97
2023-01-18T09:42:58.347Z,92482.19
2023-01-18T09:44:00.027Z,92478.34
2023-01-18T09:44:59.748Z,92458.41
2023-01-18T09:45:56.962Z,92458.75
2023-01-18T09:46:56.685Z,92472.97
2023-01-18T09:48:06.014Z,92481.38
2023-01-18T09:49:06.959Z,92485.94
2023-01-18T09:50:15.851Z,92479.88
2023-01-18T09:51:20.757Z,92463.41
2023-01-18T09:52:48.092Z,92480.28
2023-01-18T09:54:04.974Z,92485.97
2023-01-18T09:55:18.357Z,92489.41
2023-01-18T09:56:18.640Z,92471.81
2023-01-18T09:57:37.953Z,92480.63
2023-01-18T09:58:53.603Z,92471.09
2023-01-18T09:59:59.865Z,92469.91
2023-01-18T10:01:05.592Z,92472.56
2023-01-18T10:02:13.277Z,92420.03
2023-01-18T10:03:34.528Z,92490.94
2023-01-18T10:04:42.058Z,92479.09
2023-01-18T10:05:47.491Z,92480.22
2023-01-18T10:06:47.572Z,92485.56
2023-01-18T10:08:14.862Z,92463.41
2023-01-18T10:09:18.133Z,92457.31
2023-01-18T10:10:19.075Z,92448.91
2023-01-18T10:11:31.357Z,92483.22
2023-01-18T10:12:40.867Z,92475.16
2023-01-18T10:14:03.347Z,92474.84
2023-01-18T10:15:07.799Z,92476.31
2023-01-18T10:16:10.866Z,92471.31
2023-01-18T10:17:36.149Z,92486.97
2023-01-18T10:18:32.804Z,92483.50
2023-01-18T10:19:31.681Z,92470.09
2023-01-18T10:21:07.452Z,92475.03
2023-01-18T10:22:09.005Z,92437.72
2023-01-18T10:23:31.170Z,92474.31
2023-01-18T10:24:30.783Z,92467.44
2023-01-18T10:25:46.126Z,92473.19
2023-01-18T10:26:44.901Z,92441.50
2023-01-18T10:27:59.896Z,92466.28
2023-01-18T10:29:33.208Z,92463.59
2023-01-18T10:31:17.655Z,92476.22
2023-01-18T10:32:20.710Z,92466.97
2023-01-18T10:33:23.600Z,92471.66
2023-01-18T10:34:22.760Z,92472.78
2023-01-18T10:35:30.076Z,92465.53
2023-01-18T10:36:33.704Z,92468.25
2023-01-18T10:37:45.365Z,92480.06
2023-01-18T10:38:43.041Z,92466.31
2023-01-18T10:39:45.443Z,92466.28
2023-01-18T10:40:43.759Z,92469.69
2023-01-18T10:41:42.320Z,92459.75
2023-01-18T10:43:00.040Z,92474.28
2023-01-18T10:43:57.017Z,92464.66
2023-01-18T10:44:53.603Z,92465.47
2023-01-18T10:45:51.136Z,92414.06
2023-01-18T10:46:47.784Z,92469.31
2023-01-18T10:47:44.778Z,92442.63
2023-01-18T10:48:46.596Z,92474.69
2023-01-18T10:49:46.125Z,92452.94
2023-01-18T10:50:46.417Z,92448.38
2023-01-18T10:51:44.638Z,92456.25
2023-01-18T10:52:41.368Z,92450.19
2023-01-18T10:53:39.308Z,92456.25
2023-01-18T10:54:36.108Z,92466.22
2023-01-18T10:55:33.781Z,92462.84
2023-01-18T10:56:30.499Z,92435.75
2023-01-18T10:57:34.208Z,92434.22
2023-01-18T10:58:46.286Z,92482.69
2023-01-18T10:59:43.093Z,92458.97
2023-01-18T11:00:39.791Z,92449.03
2023-01-18T11:01:53.215Z,92465.81
2023-01-18T11:02:53.313Z,92469.63
2023-01-18T11:04:06.064Z,92453.53
2023-01-18T11:05:20.805Z,92454.31
2023-01-18T11:06:20.488Z,92454.28
2023-01-18T11:07:24.817Z,92471.94
2023-01-18T11:08:31.579Z,92459.75
2023-01-18T11:10:09.713Z,92460.22
2023-01-18T11:11:16.317Z,92446.28
2023-01-18T11:12:38.582Z,92443.59
2023-01-18T11:13:46.654Z,92442.84
2023-01-18T11:14:43.362Z,92450.44
2023-01-18T11:15:40.021Z,92447.78
2023-01-18T11:16:42.480Z,92442.75
2023-01-18T11:17:39.408Z,92454.69
2023-01-18T11:18:36.093Z,92442.91
2023-01-18T11:19:33.288Z,92470.34
2023-01-18T11:20:48.758Z,92460.75
2023-01-18T11:21:50.037Z,92422.50
2023-01-18T11:23:00.524Z,92446.13
2023-01-18T11:23:58.233Z,92446.16
2023-01-18T11:24:54.864Z,92451.44
2023-01-18T11:26:01.105Z,92470.28
2023-01-18T11:27:15.711Z,92459.22
2023-01-18T11:28:26.356Z,92465.22
2023-01-18T11:29:30.042Z,92458.25
2023-01-18T11:30:27.392Z,92459.78
2023-01-18T11:31:27.196Z,92473.22
2023-01-18T11:32:26.975Z,92456.41
2023-01-18T11:33:26.273Z,92469.41
2023-01-18T11:34:31.639Z,92488.19
2023-01-18T11:35:34.275Z,92457.97
2023-01-18T11:36:45.104Z,92453.34
2023-01-18T11:37:45.873Z,92457.50
2023-01-18T11:38:42.486Z,92470.53
2023-01-18T11:39:39.051Z,92474.81
2023-01-18T11:40:35.759Z,92459.91
2023-01-18T11:41:32.650Z,92461.78
2023-01-18T11:42:34.439Z,92465.97
2023-01-18T11:43:33.281Z,92462.88
2023-01-18T11:44:34.938Z,92454.47
2023-01-18T11:45:53.949Z,92423.75
2023-01-18T11:46:58.003Z,92461.78
2023-01-18T11:48:13.318Z,92461.38
2023-01-18T11:49:24.526Z,92452.97
2023-01-18T11:50:45.837Z,92444.09
2023-01-18T11:51:55.920Z,92444.03
2023-01-18T11:52:56.802Z,92458.16